METAR AND TAF INFORMATION
METAR FOR LOWK
ADDS - METARS form results

(1012 UTC 21 January 2018)
Data provider http://aviationweather.gov/adds/metars/
 
METAR text: LOWK 210950Z 31005KT 9999 FEW060 02/M02 Q1005 R10L/19//95 NOSIG
Conditions at: LOWK (KLAGENFURT(CIV/M, AT) observed 0950 UTC 21 January 2018
Temperature: 2.0°C (36°F)
Dewpoint: -2.0°C (28°F) [RH = 75%]
Pressure (altimeter): 29.68 inches Hg (1005.0 mb)
Winds: from the NW (310 degrees) at 6 MPH (5 knots; 2.6 m/s)
Visibility: 6 or more miles (10+ km)
Ceiling: at least 12,000 feet AGL
Clouds: few clouds at 6000 feet AGL
Weather: no significant weather observed at this time

METAR text: LOWK 210920Z 30005KT 9999 FEW060 01/M02 Q1005 R10L/19//95 NOSIG
Conditions at: LOWK (KLAGENFURT(CIV/M, AT) observed 0920 UTC 21 January 2018
Temperature: 1.0°C (34°F)
Dewpoint: -2.0°C (28°F) [RH = 80%]
Pressure (altimeter): 29.68 inches Hg (1005.0 mb)
Winds: from the WNW (300 degrees) at 6 MPH (5 knots; 2.6 m/s)
Visibility: 6 or more miles (10+ km)
Ceiling: at least 12,000 feet AGL
Clouds: few clouds at 6000 feet AGL
Weather: no significant weather observed at this time

Forecast for: LOWK (KLAGENFURT(CIV/M, AT)
Text: TAF LOWK 210515Z 2106/2206 32005KT 9999 SCT050 SCT120 TX05/2115Z TNM04/2205Z
Forecast period: 0600 UTC 21 January 2018 to 0600 UTC 22 January 2018
Forecast type: FROM: standard forecast or significant change
Winds: from the NW (320 degrees) at 6 MPH (5 knots; 2.6 m/s)
Visibility: 6 or more miles (10+ km)
Clouds: scattered clouds at 5000 feet AGL
scattered clouds at 12000 feet AGL
Weather: no significant weather forecast for this period
Text: TEMPO 2111/2119 34020G35KT
Forecast period: 1100 to 1900 UTC 21 January 2018
Forecast type: TEMPORARY: The following changes expected for less than half the time period
Winds: from the NNW (340 degrees) at 23 MPH (20 knots; 10.4 m/s)
gusting to 40 MPH (35 knots; 18.2 m/s)
Weather: no significant weather forecast for this period

 AIRPORT MAP

 RUNWAY INFORMATION
Runway 10L Runway length 8924 ft Runway width 148 ft
Runway elevation 1470 ft Runway displaced threshold 656 ft Runway heading 106
Runway 28R Runway length 8924 ft Runway width 148 ft
Runway elevation 1445 ft Runway displaced threshold 0 ft Runway heading 286
Runway 10R Runway length 2427 ft Runway width 90 ft
Runway elevation 1470 ft Runway displaced threshold 196 ft Runway heading 106
Runway 28L Runway length 2427 ft Runway width 90 ft
Runway elevation 1463 ft Runway displaced threshold 196 ft Runway heading 286

 AIRPORT FREQUENCIES
Type APP Name APP Frequency 126.825 MHZ
Type ATIS Name ATIS Frequency 124.075 MHZ
Type TWR Name TWR Frequency 118.1 MHZ

 AIRPORT NEAR NAVIGATION AIDS
Type VOR-DME Name Klagenfurt Frequency 113100 KHZ
Type NDB Name Klagenfurt Frequency 374 KHZ
Type NDB Name Klagenfurt Frequency 405 KHZ
Type VOR-DME Name Villach Frequency 112900 KHZ



v2.6.1